Pagrindinis puslapis
METAR-TAF:

METAR-TAF

Oro uostai :

Hueska, Ispanija

platuma: 42-04-32N, ilguma: 0-18-58W, Aukštis: 539 m

Dabartinis oras

Ataskaita buvo paskelbta 44 minutes, ne 12:30 UTC
Vėjas 3 kt iš Rytų/Pietryčių, svyruoja nuo Šiaurės Rytų ir Pietvakarių
Temperatūra 24°C
Drėgmė 38%
Slėgis 1025 hPa
Matomumas 10 km arba daugiau
nėra debesų žemiau 1500 m ir nėra kamuolinių lietaus debesų

METAR: LEHC 141230Z 11003KT 050V220 CAVOK 24/09 Q1025

Laikas: 15:14 (13:14 UTC)

Prognozė

Ataskaita buvo paskelbta 5 valandos ir 14 minutes, ne 08:00 UTC
Prognozė galioja nuo 14 metu 09 UTC su 15 metu 09 UTC
Vėjas 4 kt nuo kintamojo kryptimis
Matomumas 10 km arba daugiau
nėra debesų žemiau 1500 m ir nėra kamuolinių lietaus debesų
Laikinai
nuo 14 metu 19 UTC su 14 metu 24 UTC
Vėjas 10 kt iš Rytų/Šiaurės Rytų

TAF: LEHC 140800Z 1409/1509 VRB04KT CAVOK TX27/1414Z TN09/1506Z TEMPO 1419/1424 07010KT

Orai ataskaitas ir orų prognozės (METAR, TAF).

turimą stotys yra geltonos ir raudonos taškus žemėlapyje.

Perkelti pele per norėdami pamatyti stoties vardą.

Tada spustelėkite, norėdami matyti oro stebėjimo ir prognozės.

Norėdami pakeisti žemėlapį: spustelėkite ant žalios mygtukų su juodo kryžiaus žemyn,; žalią mygtuką su brūkšneliu, jei norite nutolinti; arba žalių rodyklių gretimoms žemėlapius.


METAR-TAF: